Time;durP1;ratioP1;P1;durP2;ratioP2;P2;SDS_P1;SDS_P2;PMS_P1;PMS_P2;Temp;Humidity;BMP_temperature;BMP_pressure;BME280_temperature;BME280_humidity;BME280_pressure;Samples;Min_cycle;Max_cycle;Signal;HPM_P1;HPM_P2
2021/03/30 00:01:21;;;;;;;9.00;3.45;;;7.30;70.30;;;;;;4974827;28;20053;-91
2021/03/30 00:03:57;;;;;;;6.05;2.90;;;7.20;71.50;;;;;;4996158;28;20042;-90
2021/03/30 00:06:24;;;;;;;5.68;2.92;;;7.10;72.50;;;;;;4984311;28;20135;-90
2021/03/30 00:08:51;;;;;;;4.93;2.92;;;7.00;71.40;;;;;;5001959;28;20054;-90
2021/03/30 00:11:22;;;;;;;8.27;3.40;;;6.90;72.10;;;;;;5002582;28;20120;-91
2021/03/30 00:13:51;;;;;;;6.00;3.17;;;6.80;77.40;;;;;;4984978;28;20141;-90
2021/03/30 00:16:22;;;;;;;6.60;3.00;;;6.80;79.60;;;;;;4964207;28;20119;-90
2021/03/30 00:18:52;;;;;;;5.32;3.17;;;6.70;77.50;;;;;;4984838;28;20137;-90
2021/03/30 00:21:27;;;;;;;6.72;2.67;;;6.70;72.60;;;;;;5000605;28;20142;-89
2021/03/30 00:24:08;;;;;;;;;;;;;;;;;;;;;
2021/03/30 00:26:40;;;;;;;6.55;4.05;;;6.70;80.00;;;;;;4988086;28;20429;-89
2021/03/30 00:29:07;;;;;;;9.90;3.45;;;6.70;83.40;;;;;;4985429;28;20042;-90
2021/03/30 00:31:34;;;;;;;7.78;3.95;;;6.80;84.20;;;;;;5010625;28;20105;-90
2021/03/30 00:34:16;;;;;;;5.75;3.30;;;6.70;86.70;;;;;;5001229;28;20533;-91
2021/03/30 00:36:53;;;;;;;4.55;2.90;;;6.70;87.60;;;;;;4978215;28;20054;-90
2021/03/30 00:39:25;;;;;;;5.10;2.85;;;6.60;90.10;;;;;;4985347;28;20055;-90
2021/03/30 00:41:52;;;;;;;7.70;3.17;;;6.50;90.00;;;;;;4976500;28;20113;-90
2021/03/30 00:44:20;;;;;;;5.53;2.92;;;6.50;83.00;;;;;;5000123;28;20115;-91
2021/03/30 00:46:49;;;;;;;7.30;3.20;;;6.60;81.30;;;;;;4978735;28;20328;-91
2021/03/30 00:49:17;;;;;;;8.50;3.60;;;6.70;81.20;;;;;;4998667;28;20054;-89
2021/03/30 00:51:55;;;;;;;8.52;2.75;;;6.70;80.70;;;;;;4997108;28;20058;-90
2021/03/30 00:54:27;;;;;;;6.57;3.60;;;6.70;81.20;;;;;;4983976;28;20054;-91
2021/03/30 00:57:18;;;;;;;6.40;2.88;;;6.80;81.20;;;;;;4990494;28;20053;-90
2021/03/30 00:59:49;;;;;;;7.50;2.78;;;6.80;80.30;;;;;;4977743;28;20504;-91
2021/03/30 01:02:16;;;;;;;5.23;3.13;;;6.80;81.70;;;;;;4978601;28;20051;-90
2021/03/30 01:04:49;;;;;;;9.48;3.70;;;6.70;81.60;;;;;;4985773;28;20306;-89
2021/03/30 01:07:16;;;;;;;8.60;2.97;;;6.80;78.80;;;;;;4977477;28;20059;-89
2021/03/30 01:10:17;;;;;;;6.43;3.35;;;6.90;77.30;;;;;;4996961;28;20057;-90
2021/03/30 01:13:11;;;;;;;8.45;2.90;;;7.00;85.90;;;;;;4993153;28;20138;-89
2021/03/30 01:15:49;;;;;;;9.20;3.28;;;6.80;89.90;;;;;;5003662;28;20474;-88
2021/03/30 01:19:12;;;;;;;12.23;3.20;;;6.70;89.60;;;;;;5004826;28;20081;-90
2021/03/30 01:21:55;;;;;;;5.55;3.20;;;6.70;89.30;;;;;;4920330;29;20059;-91
2021/03/30 01:24:37;;;;;;;8.07;3.72;;;6.70;89.60;;;;;;4937719;28;20062;-90
2021/03/30 01:27:39;;;;;;;4.07;3.05;;;6.70;90.70;;;;;;4993868;28;20050;-88
2021/03/30 01:30:10;;;;;;;6.07;3.65;;;6.70;90.20;;;;;;5006716;28;20106;-89
2021/03/30 01:33:01;;;;;;;5.78;3.55;;;6.70;90.20;;;;;;4984964;28;20436;-91
2021/03/30 01:35:45;;;;;;;7.97;4.82;;;6.50;91.20;;;;;;4994696;28;20050;-90
2021/03/30 01:38:14;;;;;;;10.27;3.35;;;6.40;91.50;;;;;;5000679;28;20045;-91
2021/03/30 01:41:04;;;;;;;;;;;;;;;;;;;;;
2021/03/30 01:43:32;;;;;;;7.68;3.70;;;6.40;89.90;;;;;;4992677;28;20510;-90
2021/03/30 01:46:01;;;;;;;9.95;3.40;;;6.30;90.90;;;;;;5002249;28;20050;-89
2021/03/30 01:48:31;;;;;;;8.60;3.65;;;6.20;90.80;;;;;;5006803;28;20057;-90
2021/03/30 01:51:04;;;;;;;9.13;3.83;;;6.20;92.20;;;;;;4992745;28;20055;-90
2021/03/30 01:53:35;;;;;;;7.50;4.30;;;6.10;96.40;;;;;;4985112;28;20055;-90
2021/03/30 01:56:05;;;;;;;8.32;3.90;;;6.00;97.50;;;;;;5004099;28;20055;-90
2021/03/30 01:58:35;;;;;;;8.98;3.75;;;5.90;98.30;;;;;;4998315;28;20081;-89
2021/03/30 02:01:08;;;;;;;6.93;3.22;;;5.80;99.60;;;;;;4986362;28;20043;-90
2021/03/30 02:03:45;;;;;;;7.53;3.88;;;5.70;99.90;;;;;;5001468;28;20090;-91
2021/03/30 02:06:12;;;;;;;7.13;3.13;;;5.60;99.90;;;;;;4985508;28;20356;-89
2021/03/30 02:08:43;;;;;;;11.18;4.28;;;5.60;99.90;;;;;;4978806;28;20039;-91
2021/03/30 02:11:18;;;;;;;7.97;3.50;;;5.50;99.90;;;;;;4980094;28;20050;-92
2021/03/30 02:13:54;;;;;;;9.40;3.20;;;5.40;99.90;;;;;;4970755;28;20062;-89
2021/03/30 02:16:29;;;;;;;9.20;3.65;;;5.30;99.90;;;;;;4990848;28;20054;-91
2021/03/30 02:19:21;;;;;;;5.25;3.40;;;5.20;99.90;;;;;;5001357;28;20046;-90
2021/03/30 02:22:01;;;;;;;6.50;3.60;;;5.20;99.90;;;;;;4984791;28;20073;-91
2021/03/30 02:24:31;;;;;;;6.68;3.50;;;5.10;99.90;;;;;;4986312;28;20041;-90
2021/03/30 02:27:04;;;;;;;8.38;3.65;;;5.00;99.90;;;;;;5005336;28;20077;-91
2021/03/30 02:29:34;;;;;;;4.55;3.35;;;5.00;99.90;;;;;;4984814;28;20074;-90
2021/03/30 02:32:12;;;;;;;6.35;3.83;;;4.90;99.90;;;;;;5018841;28;20129;-91
2021/03/30 02:34:40;;;;;;;9.88;4.07;;;4.80;99.90;;;;;;4991783;28;20061;-90
2021/03/30 02:37:36;;;;;;;10.05;3.97;;;4.70;99.90;;;;;;5003404;28;20173;-90
2021/03/30 02:40:10;;;;;;;6.88;3.88;;;4.60;99.90;;;;;;4998516;28;20065;-90
2021/03/30 02:42:41;;;;;;;6.68;3.75;;;4.60;99.90;;;;;;5009984;28;20030;-89
2021/03/30 02:45:12;;;;;;;7.68;4.15;;;4.60;99.90;;;;;;4985766;28;20130;-90
2021/03/30 02:47:42;;;;;;;7.13;3.83;;;4.60;99.90;;;;;;5001936;28;20118;-91
2021/03/30 02:50:11;;;;;;;7.13;3.63;;;4.60;99.90;;;;;;4969511;28;20051;-90
2021/03/30 02:52:41;;;;;;;5.32;3.95;;;4.60;99.90;;;;;;4982519;28;20065;-90
2021/03/30 02:55:08;;;;;;;5.82;4.07;;;4.50;99.90;;;;;;4991072;28;20051;-88
2021/03/30 02:57:41;;;;;;;6.68;3.92;;;4.50;99.90;;;;;;5011539;28;20109;-89
2021/03/30 03:00:24;;;;;;;5.90;4.10;;;4.50;99.90;;;;;;4969446;28;20051;-90
2021/03/30 03:03:09;;;;;;;11.30;3.85;;;4.50;99.90;;;;;;4975788;28;20086;-90
2021/03/30 03:05:38;;;;;;;7.80;4.10;;;4.40;99.90;;;;;;4986901;28;20054;-89
2021/03/30 03:08:09;;;;;;;6.75;4.03;;;4.30;99.90;;;;;;5003534;28;20101;-89
2021/03/30 03:10:45;;;;;;;6.72;3.88;;;4.30;99.90;;;;;;4986736;28;20046;-90
2021/03/30 03:13:14;;;;;;;10.20;4.15;;;4.30;99.90;;;;;;5004066;28;20050;-90
2021/03/30 03:15:42;;;;;;;7.32;3.72;;;4.50;99.90;;;;;;4996061;28;20068;-89
2021/03/30 03:18:14;;;;;;;5.88;3.78;;;4.90;99.90;;;;;;5015557;28;20074;-90
2021/03/30 03:20:45;;;;;;;7.85;4.13;;;5.00;99.90;;;;;;4979710;28;20099;-89
2021/03/30 03:23:14;;;;;;;5.75;3.63;;;4.90;99.90;;;;;;4996433;28;20050;-91
2021/03/30 03:25:48;;;;;;;6.00;3.47;;;4.80;99.90;;;;;;5010591;28;20061;-90
2021/03/30 03:28:17;;;;;;;6.00;3.58;;;4.90;99.90;;;;;;4975983;28;20050;-89
2021/03/30 03:30:46;;;;;;;9.88;4.43;;;5.00;99.90;;;;;;4979582;28;20050;-90
2021/03/30 03:33:15;;;;;;;10.27;4.35;;;5.00;99.90;;;;;;4986338;28;20448;-90
2021/03/30 03:36:10;;;;;;;8.70;4.00;;;4.90;99.90;;;;;;5002968;28;20061;-90
2021/03/30 03:38:50;;;;;;;5.40;3.72;;;4.80;99.90;;;;;;5002448;28;20054;-89
2021/03/30 03:41:17;;;;;;;6.75;4.35;;;4.90;99.90;;;;;;4991903;28;20057;-91
2021/03/30 03:43:53;;;;;;;7.25;3.90;;;4.80;99.90;;;;;;5002560;28;20046;-90
2021/03/30 03:46:24;;;;;;;8.75;4.40;;;4.80;99.90;;;;;;4994560;28;20065;-91
2021/03/30 03:48:57;;;;;;;7.45;4.10;;;4.80;99.90;;;;;;4996769;28;20455;-91
2021/03/30 03:51:33;;;;;;;6.85;4.25;;;4.80;99.90;;;;;;4949964;28;20058;-91
2021/03/30 03:54:12;;;;;;;10.95;4.30;;;4.70;99.90;;;;;;4982727;28;20054;-91
2021/03/30 03:56:59;;;;;;;7.32;3.97;;;4.60;99.90;;;;;;4987724;28;20114;-89
2021/03/30 03:59:36;;;;;;;8.82;4.05;;;4.60;99.90;;;;;;5002137;28;20065;-91
2021/03/30 04:02:13;;;;;;;7.53;4.68;;;4.50;99.90;;;;;;4984406;28;20324;-90
2021/03/30 04:05:10;;;;;;;7.35;4.65;;;4.30;99.90;;;;;;5002289;28;20050;-89
2021/03/30 04:08:18;;;;;;;10.75;4.88;;;4.20;99.90;;;;;;4907548;28;20137;-90
2021/03/30 04:10:56;;;;;;;6.45;4.70;;;4.10;99.90;;;;;;5000976;28;20050;-90
2021/03/30 04:13:41;;;;;;;7.82;4.72;;;4.10;99.90;;;;;;4976048;28;20053;-91
2021/03/30 04:18:55;;;;;;;10.57;4.90;;;4.00;99.90;;;;;;5002312;28;20149;-90
2021/03/30 04:21:32;;;;;;;17.05;4.75;;;4.10;99.90;;;;;;4985257;28;20070;-90
2021/03/30 04:23:59;;;;;;;13.30;4.57;;;4.20;99.90;;;;;;4993501;28;20056;-90
2021/03/30 04:26:31;;;;;;;9.88;4.40;;;4.10;99.90;;;;;;5003211;28;20054;-91
2021/03/30 04:29:13;;;;;;;11.68;4.53;;;4.10;99.90;;;;;;5003185;28;20181;-90
2021/03/30 04:31:40;;;;;;;10.13;5.47;;;4.00;99.90;;;;;;4984702;28;20058;-90
2021/03/30 04:34:13;;;;;;;7.93;4.60;;;4.00;99.90;;;;;;4993114;28;20149;-87
2021/03/30 04:36:39;;;;;;;6.75;4.45;;;4.00;99.90;;;;;;4992217;28;20082;-88
2021/03/30 04:39:06;;;;;;;7.93;4.30;;;4.00;99.90;;;;;;4985358;28;20058;-86
2021/03/30 04:41:33;;;;;;;12.50;5.15;;;4.00;99.90;;;;;;4986733;28;20382;-88
2021/03/30 04:43:59;;;;;;;8.95;4.28;;;4.10;99.90;;;;;;4959841;28;20092;-89
2021/03/30 04:46:25;;;;;;;7.75;4.50;;;4.10;99.90;;;;;;4989356;28;20116;-89
2021/03/30 04:48:52;;;;;;;6.20;4.38;;;4.10;99.90;;;;;;4964051;28;20055;-88
2021/03/30 04:51:19;;;;;;;8.05;4.45;;;4.00;99.90;;;;;;4957016;28;20348;-89
2021/03/30 04:53:46;;;;;;;8.57;4.93;;;4.10;99.90;;;;;;4982841;28;20051;-90
2021/03/30 04:56:13;;;;;;;12.60;5.13;;;4.00;99.90;;;;;;4963267;28;20089;-89
2021/03/30 04:58:40;;;;;;;14.43;5.13;;;4.00;99.90;;;;;;4957411;28;20118;-88
2021/03/30 05:01:06;;;;;;;9.45;4.65;;;4.00;99.90;;;;;;4965161;28;20487;-86
2021/03/30 05:03:33;;;;;;;6.00;4.05;;;3.90;99.90;;;;;;4964108;28;20404;-87
2021/03/30 05:06:03;;;;;;;7.03;4.05;;;3.90;99.90;;;;;;4968795;28;20114;-89
2021/03/30 05:08:30;;;;;;;6.18;4.82;;;4.00;99.90;;;;;;4970872;28;20066;-88
2021/03/30 05:10:57;;;;;;;8.70;4.45;;;4.10;99.90;;;;;;4987809;28;20075;-89
2021/03/30 05:13:23;;;;;;;6.90;3.97;;;4.20;99.90;;;;;;4951940;28;20055;-90
2021/03/30 05:15:50;;;;;;;5.53;4.03;;;4.10;99.90;;;;;;4960771;28;20054;-89
2021/03/30 05:18:19;;;;;;;6.75;4.57;;;4.10;99.90;;;;;;4961552;28;20059;-92
2021/03/30 05:20:46;;;;;;;9.00;4.93;;;4.10;99.90;;;;;;4956257;28;20110;-90
2021/03/30 05:23:14;;;;;;;11.07;4.68;;;4.10;99.90;;;;;;4993962;28;20051;-90
2021/03/30 05:25:41;;;;;;;9.75;4.00;;;4.10;99.90;;;;;;5075883;23;20121;-88
2021/03/30 05:28:11;;;;;;;13.20;4.38;;;4.10;99.90;;;;;;5035222;28;20067;-89
2021/03/30 05:30:37;;;;;;;7.78;4.97;;;4.10;99.90;;;;;;5035478;28;20046;-90
2021/03/30 05:33:04;;;;;;;8.98;4.35;;;4.10;99.90;;;;;;5017049;28;20041;-91
2021/03/30 05:35:37;;;;;;;11.93;4.25;;;4.20;99.90;;;;;;5015890;28;20127;-89
2021/03/30 05:38:04;;;;;;;7.15;5.20;;;4.20;99.90;;;;;;5016427;28;20092;-91
2021/03/30 05:40:32;;;;;;;12.88;5.07;;;4.10;99.90;;;;;;5035264;28;20117;-86
2021/03/30 05:43:10;;;;;;;10.90;5.30;;;4.20;99.90;;;;;;5013126;28;20065;-87
2021/03/30 05:45:37;;;;;;;8.75;4.70;;;4.10;99.90;;;;;;5013439;28;20057;-87
2021/03/30 05:48:09;;;;;;;11.65;4.72;;;4.10;99.90;;;;;;5034081;28;20053;-86
2021/03/30 05:50:37;;;;;;;7.00;3.90;;;4.10;99.90;;;;;;5039593;28;20050;-88
2021/03/30 05:53:09;;;;;;;9.35;4.85;;;4.10;99.90;;;;;;5008132;28;20083;-85
2021/03/30 05:55:43;;;;;;;8.48;4.55;;;4.20;99.90;;;;;;5000028;28;20088;-87
2021/03/30 05:58:10;;;;;;;12.32;5.60;;;4.20;99.90;;;;;;4989614;28;20061;-87
2021/03/30 06:00:49;;;;;;;6.97;4.68;;;4.30;99.90;;;;;;5021266;28;20061;-88
2021/03/30 06:03:22;;;;;;;12.73;4.90;;;4.40;99.90;;;;;;4994555;28;20378;-88
2021/03/30 06:05:55;;;;;;;6.93;3.60;;;4.60;99.90;;;;;;5018586;28;20045;-87
2021/03/30 06:08:26;;;;;;;7.93;3.95;;;4.70;99.90;;;;;;5006634;28;20061;-87
2021/03/30 06:11:02;;;;;;;9.85;4.00;;;4.90;99.90;;;;;;5003103;28;20053;-86
2021/03/30 06:13:49;;;;;;;9.82;5.03;;;5.00;99.90;;;;;;5012275;28;20065;-86
2021/03/30 06:16:26;;;;;;;8.65;4.68;;;5.30;99.90;;;;;;5001831;28;20057;-86
2021/03/30 06:19:08;;;;;;;6.97;4.85;;;5.40;99.90;;;;;;5008656;28;20053;-90
2021/03/30 06:21:50;;;;;;;7.00;4.35;;;5.60;99.90;;;;;;5001842;28;20129;-87
2021/03/30 06:24:20;;;;;;;11.13;4.78;;;5.80;99.90;;;;;;5003886;28;20478;-90
2021/03/30 06:26:48;;;;;;;5.32;3.92;;;6.30;99.90;;;;;;5003411;28;20092;-91
2021/03/30 06:29:35;;;;;;;7.75;4.30;;;6.90;99.90;;;;;;5002958;28;20062;-90
2021/03/30 06:32:10;;;;;;;6.32;3.30;;;7.70;97.60;;;;;;5016155;28;20406;-91
2021/03/30 06:34:40;;;;;;;7.97;4.40;;;8.50;90.40;;;;;;5019363;28;20054;-90
2021/03/30 06:37:31;;;;;;;9.98;4.50;;;9.10;87.90;;;;;;5004648;28;20141;-90
2021/03/30 06:40:46;;;;;;;9.40;4.60;;;9.60;82.50;;;;;;4998618;28;20054;-90
2021/03/30 06:44:24;;;;;;;12.30;5.07;;;10.10;79.00;;;;;;5012633;28;20091;-90
2021/03/30 06:46:29;;;;;;;;;;;;;;;;;;;;;
2021/03/30 06:49:16;;;;;;;6.50;4.25;;;10.70;72.80;;;;;;5019192;28;20050;-91
2021/03/30 06:51:56;;;;;;;7.32;4.35;;;10.80;72.40;;;;;;5003499;28;20149;-92
2021/03/30 06:54:27;;;;;;;11.20;4.07;;;11.10;71.10;;;;;;5009597;28;20125;-89
2021/03/30 06:57:06;;;;;;;10.52;4.20;;;11.20;69.70;;;;;;5026253;28;20065;-90
2021/03/30 06:59:49;;;;;;;7.65;4.30;;;11.40;69.70;;;;;;4999057;28;20053;-90
2021/03/30 07:02:18;;;;;;;12.73;4.18;;;11.70;68.80;;;;;;4999533;28;20096;-89
2021/03/30 07:04:57;;;;;;;17.00;4.88;;;12.10;66.90;;;;;;5000676;28;20042;-89
2021/03/30 07:07:26;;;;;;;7.25;4.22;;;12.50;64.30;;;;;;5001450;28;20115;-89
2021/03/30 07:09:53;;;;;;;6.82;3.88;;;12.70;62.30;;;;;;5017521;28;20077;-88
2021/03/30 07:12:25;;;;;;;9.45;3.47;;;12.80;60.60;;;;;;4999202;28;20554;-89
2021/03/30 07:15:05;;;;;;;8.38;3.25;;;12.90;60.90;;;;;;5016258;28;20054;-90
2021/03/30 07:17:46;;;;;;;;;;;;;;;;;;;;;
2021/03/30 07:20:19;;;;;;;8.55;3.58;;;13.30;58.40;;;;;;5011153;28;20045;-90
2021/03/30 07:22:51;;;;;;;11.70;3.60;;;13.50;58.00;;;;;;4999614;28;20145;-90
2021/03/30 07:25:23;;;;;;;6.68;3.22;;;13.70;57.00;;;;;;5021273;28;20042;-91
2021/03/30 07:28:14;;;;;;;8.35;3.33;;;13.90;56.10;;;;;;5011114;28;20108;-91
2021/03/30 07:30:53;;;;;;;7.18;3.70;;;14.10;56.40;;;;;;5033060;28;20034;-91
2021/03/30 07:34:00;;;;;;;9.27;4.07;;;14.40;55.60;;;;;;5005766;28;20062;-91
2021/03/30 07:37:20;;;;;;;5.95;3.00;;;14.60;56.40;;;;;;5009468;28;20062;-90
2021/03/30 07:40:23;;;;;;;6.20;3.60;;;14.70;55.40;;;;;;4987951;28;20053;-92
2021/03/30 07:42:56;;;;;;;7.72;3.55;;;15.00;55.00;;;;;;5001625;28;20137;-90
2021/03/30 07:45:36;;;;;;;9.60;4.28;;;15.40;53.90;;;;;;5002605;28;20049;-91
2021/03/30 07:48:15;;;;;;;8.30;3.70;;;15.80;52.70;;;;;;5001993;28;20057;-91
2021/03/30 07:51:23;;;;;;;10.50;3.60;;;16.10;52.70;;;;;;5003195;28;20068;-90
2021/03/30 07:54:15;;;;;;;7.60;3.72;;;16.40;50.70;;;;;;5020819;28;20057;-90
2021/03/30 07:56:48;;;;;;;5.95;3.33;;;17.00;49.90;;;;;;5019674;28;20327;-91
2021/03/30 07:59:45;;;;;;;7.50;3.70;;;17.50;49.50;;;;;;5005330;28;20459;-90
2021/03/30 08:02:26;;;;;;;7.85;3.20;;;17.90;48.30;;;;;;5023738;28;20061;-90
2021/03/30 08:05:26;;;;;;;7.63;3.90;;;18.30;47.40;;;;;;5006304;28;20363;-90
2021/03/30 08:08:04;;;;;;;12.15;3.25;;;18.60;45.90;;;;;;5004696;28;20058;-91
2021/03/30 08:10:48;;;;;;;10.35;3.30;;;18.90;45.70;;;;;;5020304;28;20054;-91
2021/03/30 08:13:27;;;;;;;9.55;3.40;;;19.50;45.10;;;;;;5018165;28;20054;-88
2021/03/30 08:16:04;;;;;;;7.28;3.40;;;19.80;44.20;;;;;;5003280;28;20111;-89
2021/03/30 08:18:37;;;;;;;5.70;3.45;;;20.10;44.10;;;;;;5009682;28;20129;-90
2021/03/30 08:21:09;;;;;;;5.50;3.45;;;20.50;44.40;;;;;;5002616;28;20116;-90
2021/03/30 08:23:59;;;;;;;7.15;3.40;;;21.30;42.50;;;;;;4976042;28;20092;-92
2021/03/30 08:26:37;;;;;;;10.38;4.10;;;22.10;40.00;;;;;;5020987;28;20050;-91
2021/03/30 08:29:12;;;;;;;6.82;3.28;;;22.40;39.10;;;;;;5007640;28;20060;-91
2021/03/30 08:31:47;;;;;;;5.78;3.40;;;22.60;38.30;;;;;;5006884;28;20124;-91
2021/03/30 08:34:26;;;;;;;9.02;3.33;;;22.90;37.20;;;;;;5015385;28;20054;-91
2021/03/30 08:37:08;;;;;;;8.00;3.38;;;23.40;36.70;;;;;;5015442;28;20049;-93
2021/03/30 08:40:34;;;;;;;7.97;3.70;;;23.30;36.20;;;;;;5027605;28;20042;-92
2021/03/30 08:44:34;;;;;;;9.38;4.05;;;23.10;37.10;;;;;;5009412;28;20049;-92
2021/03/30 08:47:30;;;;;;;4.72;3.45;;;22.80;38.30;;;;;;5019736;28;20124;-92
2021/03/30 08:50:25;;;;;;;8.38;4.50;;;23.30;37.20;;;;;;5003039;28;20117;-90
2021/03/30 08:53:00;;;;;;;8.85;4.35;;;23.80;33.70;;;;;;5007855;28;20042;-90
2021/03/30 08:55:43;;;;;;;6.60;3.50;;;24.20;33.20;;;;;;5019463;28;20382;-90
2021/03/30 08:58:11;;;;;;;8.23;3.90;;;24.40;32.10;;;;;;5001278;28;20122;-91
2021/03/30 09:00:39;;;;;;;6.15;3.55;;;24.50;33.60;;;;;;5001229;28;20092;-90
2021/03/30 09:03:29;;;;;;;6.30;3.38;;;24.50;33.90;;;;;;5003809;28;20118;-91
2021/03/30 09:06:05;;;;;;;7.28;3.47;;;24.40;33.00;;;;;;5023335;28;20129;-89
2021/03/30 09:08:43;;;;;;;7.72;3.38;;;25.20;32.00;;;;;;5020252;28;20052;-91
2021/03/30 09:11:39;;;;;;;6.75;3.40;;;26.50;29.80;;;;;;5006402;28;20038;-91
2021/03/30 09:14:09;;;;;;;5.50;3.65;;;26.50;30.10;;;;;;5005504;28;20057;-91
2021/03/30 09:16:44;;;;;;;5.90;3.20;;;26.90;29.30;;;;;;5004333;28;20123;-92
2021/03/30 09:19:50;;;;;;;5.60;3.00;;;26.90;30.70;;;;;;4987501;28;20104;-93
2021/03/30 09:25:35;;;;;;;4.72;3.15;;;27.10;29.60;;;;;;5012505;28;20056;-89
2021/03/30 09:28:21;;;;;;;4.47;2.58;;;27.00;28.80;;;;;;5004905;28;20046;-90
2021/03/30 09:31:09;;;;;;;4.93;2.92;;;26.70;29.50;;;;;;5013928;28;20046;-92
2021/03/30 09:33:57;;;;;;;5.57;2.90;;;26.80;30.10;;;;;;5036784;28;20054;-91
2021/03/30 09:36:47;;;;;;;5.00;2.65;;;26.80;30.60;;;;;;5026563;28;20091;-91
2021/03/30 09:39:36;;;;;;;4.38;2.53;;;27.30;29.90;;;;;;5020189;28;20109;-90
2021/03/30 09:42:13;;;;;;;4.93;2.70;;;27.90;27.80;;;;;;5036526;28;20038;-90
2021/03/30 09:44:45;;;;;;;4.45;2.65;;;27.80;29.20;;;;;;5030896;28;20081;-90
2021/03/30 09:47:24;;;;;;;;;;;;;;;;;;;;;
2021/03/30 09:50:20;;;;;;;4.82;2.75;;;27.90;29.60;;;;;;5011154;28;20050;-91
2021/03/30 09:53:42;;;;;;;5.93;2.72;;;28.60;28.60;;;;;;5007833;28;20108;-93
2021/03/30 09:56:31;;;;;;;4.80;2.95;;;28.40;27.30;;;;;;4989373;28;20054;-93
2021/03/30 09:59:11;;;;;;;8.52;3.03;;;28.60;28.80;;;;;;5006712;28;20111;-91
2021/03/30 10:02:50;;;;;;;;;;;;;;;;;;;;;
2021/03/30 10:06:40;;;;;;;3.75;2.40;;;29.10;27.50;;;;;;5009480;28;20054;-92
2021/03/30 10:09:32;;;;;;;6.47;2.60;;;29.00;26.70;;;;;;5014843;28;20053;-92
2021/03/30 10:12:41;;;;;;;6.57;2.30;;;28.80;27.30;;;;;;5009988;28;20066;-92
2021/03/30 10:15:54;;;;;;;5.90;2.60;;;29.90;26.80;;;;;;5011217;28;20518;-91
2021/03/30 10:18:26;;;;;;;6.18;2.85;;;29.70;25.40;;;;;;5024687;28;20046;-92
2021/03/30 10:22:31;;;;;;;5.22;2.78;;;29.80;24.50;;;;;;5018197;28;20142;-92
2021/03/30 10:25:07;;;;;;;3.72;2.60;;;29.60;24.90;;;;;;5001618;28;20185;-91
2021/03/30 10:27:35;;;;;;;5.85;2.58;;;29.50;26.60;;;;;;4998174;28;20054;-89
2021/03/30 10:30:09;;;;;;;5.53;2.17;;;29.30;27.00;;;;;;4997894;28;20042;-89
2021/03/30 10:32:54;;;;;;;4.60;2.17;;;29.20;26.20;;;;;;5001271;28;20050;-90
2021/03/30 10:35:21;;;;;;;8.00;2.45;;;29.70;26.20;;;;;;5001851;28;20061;-92
2021/03/30 10:37:48;;;;;;;3.63;2.40;;;29.50;26.00;;;;;;5002615;28;20054;-92
2021/03/30 10:40:17;;;;;;;3.20;2.00;;;29.00;25.80;;;;;;5001614;28;20064;-91
2021/03/30 10:42:43;;;;;;;5.47;2.03;;;29.20;25.40;;;;;;5004937;28;20217;-92
2021/03/30 10:45:12;;;;;;;3.30;2.42;;;29.30;25.60;;;;;;5015854;28;20066;-91
2021/03/30 10:47:41;;;;;;;2.63;1.77;;;29.40;26.00;;;;;;5012986;28;20112;-91
2021/03/30 10:50:14;;;;;;;7.18;2.45;;;29.70;24.60;;;;;;5012856;28;20121;-90
2021/03/30 10:52:43;;;;;;;4.07;2.30;;;30.00;23.70;;;;;;4996693;28;20133;-89
2021/03/30 10:55:13;;;;;;;5.50;1.88;;;30.10;23.60;;;;;;5011080;28;20050;-90
2021/03/30 10:57:48;;;;;;;5.18;2.22;;;30.60;25.00;;;;;;5014014;28;20057;-92
2021/03/30 11:00:17;;;;;;;2.78;1.85;;;30.40;24.80;;;;;;5016559;28;20054;-91
2021/03/30 11:02:45;;;;;;;5.10;2.00;;;30.20;24.90;;;;;;5015779;28;20113;-91
2021/03/30 11:05:16;;;;;;;5.28;2.40;;;30.30;24.00;;;;;;5014201;28;20058;-91
2021/03/30 11:07:42;;;;;;;3.47;2.38;;;30.00;24.70;;;;;;5013768;28;20140;-91
2021/03/30 11:10:23;;;;;;;4.40;2.30;;;29.70;25.60;;;;;;4991559;28;20124;-91
2021/03/30 11:12:56;;;;;;;3.33;1.70;;;30.20;23.80;;;;;;4993789;28;20053;-93
2021/03/30 11:15:39;;;;;;;8.95;1.83;;;30.60;23.90;;;;;;5004962;28;20489;-93
2021/03/30 11:18:38;;;;;;;;;;;;;;;;;;;;;
2021/03/30 11:21:21;;;;;;;3.42;1.75;;;31.60;22.80;;;;;;5021801;28;20041;-92
2021/03/30 11:24:03;;;;;;;4.53;1.95;;;30.90;21.70;;;;;;4997319;28;20038;-91
2021/03/30 11:26:36;;;;;;;4.72;2.03;;;30.90;24.30;;;;;;5000237;28;20054;-92
2021/03/30 11:29:30;;;;;;;5.60;1.85;;;31.10;24.40;;;;;;5014810;28;20038;-91
2021/03/30 11:32:14;;;;;;;3.67;1.80;;;31.30;23.40;;;;;;5016199;28;20109;-89
2021/03/30 11:40:13;;;;;;;5.60;1.80;;;30.80;23.40;;;;;;5009951;28;20057;-89
2021/03/30 11:42:50;;;;;;;2.47;1.60;;;31.00;23.50;;;;;;5004899;28;20111;-90
2021/03/30 11:45:35;;;;;;;5.50;1.77;;;31.20;23.20;;;;;;4989186;28;20046;-92
2021/03/30 11:48:03;;;;;;;2.10;1.42;;;31.50;21.30;;;;;;5003841;28;20451;-90
2021/03/30 11:50:30;;;;;;;4.90;1.42;;;31.60;19.60;;;;;;5022432;28;20054;-91
2021/03/30 11:53:09;;;;;;;3.55;1.20;;;32.20;21.50;;;;;;5023344;28;20081;-90
2021/03/30 11:55:58;;;;;;;1.63;1.15;;;32.20;18.80;;;;;;5018813;28;20069;-91
2021/03/30 11:58:26;;;;;;;6.70;1.63;;;31.70;21.30;;;;;;4979403;28;20137;-90
2021/03/30 12:00:53;;;;;;;4.07;1.63;;;31.40;21.90;;;;;;5001620;28;20072;-91
2021/03/30 12:03:22;;;;;;;4.20;1.52;;;31.50;22.30;;;;;;5003980;28;20502;-90
2021/03/30 12:05:58;;;;;;;2.17;1.35;;;32.40;19.90;;;;;;4986176;28;20049;-90
2021/03/30 12:08:49;;;;;;;3.55;1.83;;;32.50;22.10;;;;;;5002188;28;20054;-92
2021/03/30 12:11:49;;;;;;;;;;;;;;;;;;;;;
2021/03/30 12:14:19;;;;;;;2.80;1.50;;;33.50;21.10;;;;;;5028357;28;20049;-91
2021/03/30 12:16:50;;;;;;;3.95;2.20;;;33.80;21.30;;;;;;4990981;28;20053;-89
2021/03/30 12:19:20;;;;;;;5.30;1.90;;;33.00;21.10;;;;;;5006169;28;20506;-90
2021/03/30 12:21:56;;;;;;;2.30;1.80;;;32.10;22.10;;;;;;5004144;28;20068;-89
2021/03/30 12:24:31;;;;;;;3.70;1.70;;;32.20;22.10;;;;;;5003914;28;20065;-90
2021/03/30 12:27:02;;;;;;;4.10;1.67;;;32.10;21.70;;;;;;5003036;28;20046;-90
2021/03/30 12:29:32;;;;;;;4.40;1.85;;;33.10;20.90;;;;;;5002490;28;20038;-90
2021/03/30 12:32:12;;;;;;;;;;;;;;;;;;;;;
2021/03/30 12:35:01;;;;;;;3.92;2.47;;;34.30;19.40;;;;;;5013640;28;20112;-91
2021/03/30 12:37:36;;;;;;;8.45;2.10;;;33.50;20.70;;;;;;5008283;28;20105;-89
2021/03/30 12:40:05;;;;;;;4.45;2.10;;;33.60;22.60;;;;;;4998092;28;20046;-90
2021/03/30 12:42:32;;;;;;;6.10;2.50;;;33.50;20.50;;;;;;5035510;28;20060;-89
2021/03/30 12:45:09;;;;;;;4.75;2.22;;;33.30;20.50;;;;;;5034871;28;20073;-91
2021/03/30 12:47:40;;;;;;;4.18;2.35;;;33.30;21.90;;;;;;5019653;28;20044;-89
2021/03/30 12:53:08;;;;;;;6.20;2.83;;;34.00;20.40;;;;;;5028355;28;20105;-92
2021/03/30 12:55:36;;;;;;;4.35;2.83;;;33.30;21.80;;;;;;5030999;28;20053;-92
2021/03/30 12:58:09;;;;;;;2.97;2.03;;;33.00;22.00;;;;;;4998532;28;20058;-91
2021/03/30 13:00:35;;;;;;;2.50;2.00;;;33.20;19.20;;;;;;5027219;28;20084;-90
2021/03/30 13:03:25;;;;;;;9.30;2.47;;;34.00;19.30;;;;;;5001650;28;20110;-89
2021/03/30 13:05:52;;;;;;;4.55;2.13;;;34.00;19.00;;;;;;5028620;28;20046;-91
2021/03/30 13:08:30;;;;;;;5.07;2.28;;;34.30;19.00;;;;;;5028180;28;20042;-90
2021/03/30 13:11:11;;;;;;;5.15;2.83;;;34.70;20.60;;;;;;5029005;28;20046;-91
2021/03/30 13:13:38;;;;;;;5.28;2.15;;;34.40;20.00;;;;;;5009528;28;20060;-91
2021/03/30 13:16:05;;;;;;;3.67;2.33;;;33.90;21.00;;;;;;4992760;28;20137;-91
2021/03/30 13:18:54;;;;;;;5.47;2.75;;;34.50;19.50;;;;;;5008945;28;20100;-90
2021/03/30 13:21:52;;;;;;;7.47;2.85;;;34.30;18.80;;;;;;5005698;28;20063;-92
2021/03/30 13:24:19;;;;;;;3.95;1.80;;;33.80;19.60;;;;;;5022395;28;20202;-92
2021/03/30 13:26:56;;;;;;;4.50;1.90;;;33.20;20.20;;;;;;4989293;28;20060;-91
2021/03/30 13:29:47;;;;;;;5.75;2.13;;;33.20;20.40;;;;;;4994937;28;20400;-91
2021/03/30 13:33:04;;;;;;;;;;;;;;;;;;;;;
2021/03/30 13:35:36;;;;;;;3.30;1.85;;;34.10;19.20;;;;;;5024622;28;20096;-91
2021/03/30 13:38:29;;;;;;;3.35;1.85;;;34.90;18.00;;;;;;5006642;28;20096;-90
2021/03/30 13:41:13;;;;;;;4.43;1.35;;;35.50;17.20;;;;;;4990931;28;20477;-90
2021/03/30 13:43:55;;;;;;;3.58;1.67;;;35.30;17.10;;;;;;5003827;28;20068;-92
2021/03/30 13:46:22;;;;;;;3.88;1.35;;;33.50;18.00;;;;;;5017114;28;20053;-92
2021/03/30 13:48:51;;;;;;;4.18;1.48;;;32.50;19.30;;;;;;5017886;28;20061;-92
2021/03/30 13:51:19;;;;;;;4.75;1.33;;;31.40;19.20;;;;;;5019088;28;20694;-91
2021/03/30 13:53:52;;;;;;;1.98;1.17;;;30.40;18.00;;;;;;5003989;28;20108;-90
2021/03/30 13:56:18;;;;;;;3.65;2.08;;;30.40;17.50;;;;;;5001670;28;20117;-92
2021/03/30 13:58:55;;;;;;;3.88;1.70;;;30.60;18.50;;;;;;4986944;28;20151;-91
2021/03/30 14:01:35;;;;;;;4.50;1.83;;;30.60;19.60;;;;;;5007920;28;20072;-91
2021/03/30 14:04:21;;;;;;;5.78;2.00;;;30.80;19.30;;;;;;5006599;28;20054;-91
2021/03/30 14:07:12;;;;;;;4.18;1.77;;;30.40;20.30;;;;;;5010737;28;20060;-92
2021/03/30 14:10:04;;;;;;;4.35;2.42;;;30.70;19.00;;;;;;5026541;28;20046;-91
2021/03/30 14:12:36;;;;;;;4.60;1.70;;;30.70;20.50;;;;;;5020035;28;20076;-92
2021/03/30 14:20:46;;;;;;;5.75;1.52;;;32.50;17.80;;;;;;5021584;28;20049;-91